Terminal Aerodrome Forecast
Issued by NWS

Home | Current Version | Previous Version | Text Only | Print | Product List | Glossary On
Versions: 1 2 3 4 5 6 7 8 9 10 11 12 13 14 15 16 17 18 19 20
000
FTUS43 KILX 261100
TAFDEC
TAF
KDEC 261131Z 2612/2712 30005KT P6SM SCT010 BKN080
      TEMPO 2612/2614 BKN010
     FM261500 24007KT P6SM SCT020 OVC060
     FM261800 20008KT P6SM VCSH BKN025 OVC050
     FM270200 23005KT 5SM BR OVC020=

USA.gov is the U.S. government's official web portal to all federal, state and local government web resources and services.